sensor_id;sensor_type;location;lat;lon;timestamp;P1;durP1;ratioP1;P2;durP2;ratioP2
78838;SDS011;68405;47.190;27.558;2023-05-28T00:01:42;10.40;;;4.50;;
78838;SDS011;68405;47.190;27.558;2023-05-28T00:04:14;11.90;;;4.90;;
78838;SDS011;68405;47.190;27.558;2023-05-28T00:06:45;9.20;;;5.30;;
78838;SDS011;68405;47.190;27.558;2023-05-28T00:09:17;9.20;;;4.70;;
78838;SDS011;68405;47.190;27.558;2023-05-28T00:11:49;10.50;;;5.50;;
78838;SDS011;68405;47.190;27.558;2023-05-28T00:14:20;7.30;;;4.90;;
78838;SDS011;68405;47.190;27.558;2023-05-28T00:16:52;9.40;;;5.10;;
78838;SDS011;68405;47.190;27.558;2023-05-28T00:19:24;17.10;;;5.60;;
78838;SDS011;68405;47.190;27.558;2023-05-28T00:21:56;8.20;;;5.00;;
78838;SDS011;68405;47.190;27.558;2023-05-28T00:24:27;8.90;;;4.70;;
78838;SDS011;68405;47.190;27.558;2023-05-28T00:26:59;8.80;;;4.90;;
78838;SDS011;68405;47.190;27.558;2023-05-28T00:29:31;7.50;;;5.10;;
78838;SDS011;68405;47.190;27.558;2023-05-28T00:32:03;8.70;;;4.80;;
78838;SDS011;68405;47.190;27.558;2023-05-28T00:34:38;9.10;;;5.40;;
78838;SDS011;68405;47.190;27.558;2023-05-28T00:37:10;9.00;;;5.80;;
78838;SDS011;68405;47.190;27.558;2023-05-28T00:39:41;9.30;;;5.20;;
78838;SDS011;68405;47.190;27.558;2023-05-28T00:42:13;14.50;;;5.40;;
78838;SDS011;68405;47.190;27.558;2023-05-28T00:44:45;8.80;;;5.60;;
78838;SDS011;68405;47.190;27.558;2023-05-28T00:47:16;11.40;;;5.30;;
78838;SDS011;68405;47.190;27.558;2023-05-28T00:49:48;9.80;;;4.90;;
78838;SDS011;68405;47.190;27.558;2023-05-28T00:52:22;10.00;;;4.80;;
78838;SDS011;68405;47.190;27.558;2023-05-28T00:54:55;9.20;;;5.10;;
78838;SDS011;68405;47.190;27.558;2023-05-28T00:57:27;11.40;;;4.60;;
78838;SDS011;68405;47.190;27.558;2023-05-28T01:00:00;9.60;;;5.10;;
78838;SDS011;68405;47.190;27.558;2023-05-28T01:02:34;10.40;;;4.80;;
78838;SDS011;68405;47.190;27.558;2023-05-28T01:05:09;8.60;;;4.80;;
78838;SDS011;68405;47.190;27.558;2023-05-28T01:07:42;9.60;;;5.10;;
78838;SDS011;68405;47.190;27.558;2023-05-28T01:10:14;9.30;;;5.00;;
78838;SDS011;68405;47.190;27.558;2023-05-28T01:12:46;14.80;;;5.30;;
78838;SDS011;68405;47.190;27.558;2023-05-28T01:15:19;11.70;;;4.90;;
78838;SDS011;68405;47.190;27.558;2023-05-28T01:17:51;11.10;;;4.80;;
78838;SDS011;68405;47.190;27.558;2023-05-28T01:20:27;7.90;;;4.30;;
78838;SDS011;68405;47.190;27.558;2023-05-28T01:23:02;7.90;;;5.00;;
78838;SDS011;68405;47.190;27.558;2023-05-28T01:25:39;8.60;;;4.60;;
78838;SDS011;68405;47.190;27.558;2023-05-28T01:28:13;11.90;;;4.70;;
78838;SDS011;68405;47.190;27.558;2023-05-28T01:30:45;7.30;;;4.80;;
78838;SDS011;68405;47.190;27.558;2023-05-28T01:33:16;10.60;;;4.90;;
78838;SDS011;68405;47.190;27.558;2023-05-28T01:38:24;13.80;;;4.90;;
78838;SDS011;68405;47.190;27.558;2023-05-28T01:40:57;11.90;;;5.80;;
78838;SDS011;68405;47.190;27.558;2023-05-28T01:43:30;12.80;;;6.40;;
78838;SDS011;68405;47.190;27.558;2023-05-28T01:46:02;10.60;;;5.40;;
78838;SDS011;68405;47.190;27.558;2023-05-28T01:48:34;12.40;;;5.10;;
78838;SDS011;68405;47.190;27.558;2023-05-28T01:51:06;10.80;;;5.00;;
78838;SDS011;68405;47.190;27.558;2023-05-28T01:53:38;9.90;;;4.70;;
78838;SDS011;68405;47.190;27.558;2023-05-28T01:56:10;9.80;;;4.80;;
78838;SDS011;68405;47.190;27.558;2023-05-28T01:58:41;7.20;;;4.40;;
78838;SDS011;68405;47.190;27.558;2023-05-28T02:01:13;7.60;;;4.40;;
78838;SDS011;68405;47.190;27.558;2023-05-28T02:03:49;7.80;;;4.60;;
78838;SDS011;68405;47.190;27.558;2023-05-28T02:06:22;10.90;;;4.80;;
78838;SDS011;68405;47.190;27.558;2023-05-28T02:08:54;12.70;;;4.90;;
78838;SDS011;68405;47.190;27.558;2023-05-28T02:11:26;9.40;;;4.40;;
78838;SDS011;68405;47.190;27.558;2023-05-28T02:13:57;13.10;;;4.80;;
78838;SDS011;68405;47.190;27.558;2023-05-28T02:16:29;10.50;;;5.30;;
78838;SDS011;68405;47.190;27.558;2023-05-28T02:19:01;13.30;;;5.10;;
78838;SDS011;68405;47.190;27.558;2023-05-28T02:21:33;9.60;;;4.70;;
78838;SDS011;68405;47.190;27.558;2023-05-28T02:24:05;7.10;;;4.40;;
78838;SDS011;68405;47.190;27.558;2023-05-28T02:26:37;8.50;;;4.70;;
78838;SDS011;68405;47.190;27.558;2023-05-28T02:29:09;12.50;;;4.20;;
78838;SDS011;68405;47.190;27.558;2023-05-28T02:31:40;11.10;;;4.70;;
78838;SDS011;68405;47.190;27.558;2023-05-28T02:34:12;9.50;;;4.70;;
78838;SDS011;68405;47.190;27.558;2023-05-28T02:36:44;9.80;;;4.20;;
78838;SDS011;68405;47.190;27.558;2023-05-28T02:39:16;9.70;;;4.20;;
78838;SDS011;68405;47.190;27.558;2023-05-28T02:41:47;5.20;;;3.90;;
78838;SDS011;68405;47.190;27.558;2023-05-28T02:44:19;9.00;;;4.10;;
78838;SDS011;68405;47.190;27.558;2023-05-28T02:46:51;8.70;;;4.00;;
78838;SDS011;68405;47.190;27.558;2023-05-28T02:49:22;10.40;;;4.00;;
78838;SDS011;68405;47.190;27.558;2023-05-28T02:51:54;9.30;;;4.50;;
78838;SDS011;68405;47.190;27.558;2023-05-28T02:54:25;8.80;;;4.50;;
78838;SDS011;68405;47.190;27.558;2023-05-28T02:56:57;9.50;;;4.20;;
78838;SDS011;68405;47.190;27.558;2023-05-28T02:59:30;6.50;;;3.60;;
78838;SDS011;68405;47.190;27.558;2023-05-28T03:02:02;7.90;;;4.20;;
78838;SDS011;68405;47.190;27.558;2023-05-28T03:04:33;7.10;;;4.00;;
78838;SDS011;68405;47.190;27.558;2023-05-28T03:07:05;6.70;;;4.10;;
78838;SDS011;68405;47.190;27.558;2023-05-28T03:09:37;7.00;;;4.50;;
78838;SDS011;68405;47.190;27.558;2023-05-28T03:12:09;9.60;;;4.60;;
78838;SDS011;68405;47.190;27.558;2023-05-28T03:14:41;9.70;;;4.60;;
78838;SDS011;68405;47.190;27.558;2023-05-28T03:17:12;8.40;;;3.90;;
78838;SDS011;68405;47.190;27.558;2023-05-28T03:19:44;8.20;;;4.60;;
78838;SDS011;68405;47.190;27.558;2023-05-28T03:22:16;8.40;;;4.20;;
78838;SDS011;68405;47.190;27.558;2023-05-28T03:24:48;7.90;;;4.20;;
78838;SDS011;68405;47.190;27.558;2023-05-28T03:27:20;12.10;;;4.80;;
78838;SDS011;68405;47.190;27.558;2023-05-28T03:29:51;9.60;;;3.60;;
78838;SDS011;68405;47.190;27.558;2023-05-28T03:32:23;11.80;;;4.30;;
78838;SDS011;68405;47.190;27.558;2023-05-28T03:34:55;10.30;;;3.90;;
78838;SDS011;68405;47.190;27.558;2023-05-28T03:37:26;9.40;;;4.10;;
78838;SDS011;68405;47.190;27.558;2023-05-28T03:39:58;6.60;;;4.20;;
78838;SDS011;68405;47.190;27.558;2023-05-28T03:45:02;7.50;;;3.20;;
78838;SDS011;68405;47.190;27.558;2023-05-28T03:47:35;7.10;;;3.80;;
78838;SDS011;68405;47.190;27.558;2023-05-28T03:50:08;9.90;;;4.50;;
78838;SDS011;68405;47.190;27.558;2023-05-28T03:52:40;10.10;;;4.60;;
78838;SDS011;68405;47.190;27.558;2023-05-28T03:55:12;9.50;;;4.70;;
78838;SDS011;68405;47.190;27.558;2023-05-28T03:57:43;8.20;;;3.40;;
78838;SDS011;68405;47.190;27.558;2023-05-28T04:00:16;7.60;;;4.00;;
78838;SDS011;68405;47.190;27.558;2023-05-28T04:02:48;5.70;;;3.50;;
78838;SDS011;68405;47.190;27.558;2023-05-28T04:05:20;7.50;;;3.90;;
78838;SDS011;68405;47.190;27.558;2023-05-28T04:07:51;9.30;;;4.00;;
78838;SDS011;68405;47.190;27.558;2023-05-28T04:10:24;9.60;;;3.40;;
78838;SDS011;68405;47.190;27.558;2023-05-28T04:12:55;7.40;;;4.40;;
78838;SDS011;68405;47.190;27.558;2023-05-28T04:15:27;7.10;;;3.70;;
78838;SDS011;68405;47.190;27.558;2023-05-28T04:17:59;9.60;;;3.80;;
78838;SDS011;68405;47.190;27.558;2023-05-28T04:20:31;8.10;;;4.70;;
78838;SDS011;68405;47.190;27.558;2023-05-28T04:23:04;7.20;;;3.60;;
78838;SDS011;68405;47.190;27.558;2023-05-28T04:25:36;11.40;;;4.00;;
78838;SDS011;68405;47.190;27.558;2023-05-28T04:28:07;9.40;;;4.00;;
78838;SDS011;68405;47.190;27.558;2023-05-28T04:30:39;8.00;;;4.10;;
78838;SDS011;68405;47.190;27.558;2023-05-28T04:33:10;7.20;;;4.10;;
78838;SDS011;68405;47.190;27.558;2023-05-28T04:35:46;6.20;;;3.40;;
78838;SDS011;68405;47.190;27.558;2023-05-28T04:38:18;5.80;;;3.10;;
78838;SDS011;68405;47.190;27.558;2023-05-28T04:40:50;10.20;;;3.60;;
78838;SDS011;68405;47.190;27.558;2023-05-28T04:43:22;7.40;;;3.90;;
78838;SDS011;68405;47.190;27.558;2023-05-28T04:45:54;5.20;;;3.70;;
78838;SDS011;68405;47.190;27.558;2023-05-28T04:48:27;7.50;;;3.60;;
78838;SDS011;68405;47.190;27.558;2023-05-28T04:50:59;6.10;;;4.20;;
78838;SDS011;68405;47.190;27.558;2023-05-28T04:53:31;8.50;;;3.80;;
78838;SDS011;68405;47.190;27.558;2023-05-28T04:56:03;5.30;;;3.40;;
78838;SDS011;68405;47.190;27.558;2023-05-28T04:58:35;6.90;;;3.30;;
78838;SDS011;68405;47.190;27.558;2023-05-28T05:01:07;6.10;;;3.70;;
78838;SDS011;68405;47.190;27.558;2023-05-28T05:03:39;7.50;;;3.70;;
78838;SDS011;68405;47.190;27.558;2023-05-28T05:06:10;7.30;;;3.20;;
78838;SDS011;68405;47.190;27.558;2023-05-28T05:08:42;7.70;;;3.90;;
78838;SDS011;68405;47.190;27.558;2023-05-28T05:11:14;8.00;;;4.00;;
78838;SDS011;68405;47.190;27.558;2023-05-28T05:13:46;7.10;;;4.30;;
78838;SDS011;68405;47.190;27.558;2023-05-28T05:16:18;6.20;;;3.60;;
78838;SDS011;68405;47.190;27.558;2023-05-28T05:18:50;7.80;;;3.60;;
78838;SDS011;68405;47.190;27.558;2023-05-28T05:21:22;5.70;;;3.40;;
78838;SDS011;68405;47.190;27.558;2023-05-28T05:23:54;6.60;;;3.70;;
78838;SDS011;68405;47.190;27.558;2023-05-28T05:26:25;6.30;;;3.30;;
78838;SDS011;68405;47.190;27.558;2023-05-28T05:28:57;6.60;;;3.20;;
78838;SDS011;68405;47.190;27.558;2023-05-28T05:31:29;6.60;;;3.80;;
78838;SDS011;68405;47.190;27.558;2023-05-28T05:34:00;6.90;;;3.40;;
78838;SDS011;68405;47.190;27.558;2023-05-28T05:36:32;12.20;;;3.40;;
78838;SDS011;68405;47.190;27.558;2023-05-28T05:39:04;6.50;;;3.50;;
78838;SDS011;68405;47.190;27.558;2023-05-28T05:41:36;5.90;;;4.10;;
78838;SDS011;68405;47.190;27.558;2023-05-28T05:44:08;7.70;;;3.60;;
78838;SDS011;68405;47.190;27.558;2023-05-28T05:46:39;7.40;;;3.90;;
78838;SDS011;68405;47.190;27.558;2023-05-28T05:49:11;7.20;;;3.40;;
78838;SDS011;68405;47.190;27.558;2023-05-28T05:51:43;7.50;;;3.70;;
78838;SDS011;68405;47.190;27.558;2023-05-28T05:54:14;7.40;;;4.10;;
78838;SDS011;68405;47.190;27.558;2023-05-28T05:56:46;6.20;;;3.50;;
78838;SDS011;68405;47.190;27.558;2023-05-28T05:59:18;11.20;;;3.80;;
78838;SDS011;68405;47.190;27.558;2023-05-28T06:01:50;6.00;;;3.60;;
78838;SDS011;68405;47.190;27.558;2023-05-28T06:04:21;6.70;;;3.60;;
78838;SDS011;68405;47.190;27.558;2023-05-28T06:06:54;8.10;;;3.80;;
78838;SDS011;68405;47.190;27.558;2023-05-28T06:09:25;7.60;;;4.10;;
78838;SDS011;68405;47.190;27.558;2023-05-28T06:11:58;6.50;;;4.00;;
78838;SDS011;68405;47.190;27.558;2023-05-28T06:14:29;8.30;;;4.20;;
78838;SDS011;68405;47.190;27.558;2023-05-28T06:17:02;7.40;;;3.80;;
78838;SDS011;68405;47.190;27.558;2023-05-28T06:19:33;7.40;;;4.20;;
78838;SDS011;68405;47.190;27.558;2023-05-28T06:22:05;9.50;;;4.00;;
78838;SDS011;68405;47.190;27.558;2023-05-28T06:24:37;6.50;;;3.80;;
78838;SDS011;68405;47.190;27.558;2023-05-28T06:27:08;5.60;;;3.80;;
78838;SDS011;68405;47.190;27.558;2023-05-28T06:29:40;9.40;;;3.70;;
78838;SDS011;68405;47.190;27.558;2023-05-28T06:32:11;8.60;;;3.50;;
78838;SDS011;68405;47.190;27.558;2023-05-28T06:34:43;8.90;;;3.70;;
78838;SDS011;68405;47.190;27.558;2023-05-28T06:37:15;8.20;;;3.70;;
78838;SDS011;68405;47.190;27.558;2023-05-28T06:39:47;8.20;;;4.50;;
78838;SDS011;68405;47.190;27.558;2023-05-28T06:42:18;6.60;;;4.00;;
78838;SDS011;68405;47.190;27.558;2023-05-28T06:44:50;6.00;;;3.50;;
78838;SDS011;68405;47.190;27.558;2023-05-28T06:47:21;9.60;;;4.40;;
78838;SDS011;68405;47.190;27.558;2023-05-28T06:49:54;9.70;;;4.70;;
78838;SDS011;68405;47.190;27.558;2023-05-28T06:52:25;8.20;;;4.10;;
78838;SDS011;68405;47.190;27.558;2023-05-28T06:54:57;5.90;;;3.60;;
78838;SDS011;68405;47.190;27.558;2023-05-28T06:57:29;6.50;;;3.60;;
78838;SDS011;68405;47.190;27.558;2023-05-28T07:00:01;8.00;;;3.70;;
78838;SDS011;68405;47.190;27.558;2023-05-28T07:02:37;8.10;;;4.10;;
78838;SDS011;68405;47.190;27.558;2023-05-28T07:05:09;9.60;;;3.70;;
78838;SDS011;68405;47.190;27.558;2023-05-28T07:07:41;8.50;;;4.70;;
78838;SDS011;68405;47.190;27.558;2023-05-28T07:10:13;10.00;;;4.70;;
78838;SDS011;68405;47.190;27.558;2023-05-28T07:12:44;6.90;;;4.20;;
78838;SDS011;68405;47.190;27.558;2023-05-28T07:15:19;12.60;;;4.20;;
78838;SDS011;68405;47.190;27.558;2023-05-28T07:17:51;7.10;;;3.90;;
78838;SDS011;68405;47.190;27.558;2023-05-28T07:20:22;8.90;;;5.00;;
78838;SDS011;68405;47.190;27.558;2023-05-28T07:22:54;8.30;;;5.20;;
78838;SDS011;68405;47.190;27.558;2023-05-28T07:25:26;9.00;;;4.30;;
78838;SDS011;68405;47.190;27.558;2023-05-28T07:27:57;11.50;;;5.00;;
78838;SDS011;68405;47.190;27.558;2023-05-28T07:30:29;7.80;;;4.30;;
78838;SDS011;68405;47.190;27.558;2023-05-28T07:33:01;8.00;;;4.30;;
78838;SDS011;68405;47.190;27.558;2023-05-28T07:35:33;7.20;;;4.00;;
78838;SDS011;68405;47.190;27.558;2023-05-28T07:38:04;11.60;;;4.50;;
78838;SDS011;68405;47.190;27.558;2023-05-28T07:40:38;8.30;;;5.00;;
78838;SDS011;68405;47.190;27.558;2023-05-28T07:43:10;10.40;;;4.40;;
78838;SDS011;68405;47.190;27.558;2023-05-28T07:45:41;11.80;;;4.60;;
78838;SDS011;68405;47.190;27.558;2023-05-28T07:48:13;7.20;;;4.10;;
78838;SDS011;68405;47.190;27.558;2023-05-28T07:50:44;9.70;;;4.90;;
78838;SDS011;68405;47.190;27.558;2023-05-28T07:53:17;6.40;;;4.40;;
78838;SDS011;68405;47.190;27.558;2023-05-28T07:55:49;11.00;;;4.60;;
78838;SDS011;68405;47.190;27.558;2023-05-28T07:58:21;8.00;;;5.00;;
78838;SDS011;68405;47.190;27.558;2023-05-28T08:00:53;10.90;;;4.70;;
78838;SDS011;68405;47.190;27.558;2023-05-28T08:03:24;10.10;;;4.90;;
78838;SDS011;68405;47.190;27.558;2023-05-28T08:05:56;6.30;;;4.00;;
78838;SDS011;68405;47.190;27.558;2023-05-28T08:08:28;9.10;;;4.80;;
78838;SDS011;68405;47.190;27.558;2023-05-28T08:11:00;9.00;;;4.60;;
78838;SDS011;68405;47.190;27.558;2023-05-28T08:13:32;10.90;;;5.10;;
78838;SDS011;68405;47.190;27.558;2023-05-28T08:16:04;7.70;;;4.90;;
78838;SDS011;68405;47.190;27.558;2023-05-28T08:18:35;8.50;;;5.00;;
78838;SDS011;68405;47.190;27.558;2023-05-28T08:21:07;8.90;;;4.30;;
78838;SDS011;68405;47.190;27.558;2023-05-28T08:23:40;8.80;;;4.60;;
78838;SDS011;68405;47.190;27.558;2023-05-28T08:26:11;10.30;;;5.20;;
78838;SDS011;68405;47.190;27.558;2023-05-28T08:28:43;8.90;;;4.20;;
78838;SDS011;68405;47.190;27.558;2023-05-28T08:31:15;9.40;;;5.20;;
78838;SDS011;68405;47.190;27.558;2023-05-28T08:33:46;9.30;;;4.60;;
78838;SDS011;68405;47.190;27.558;2023-05-28T08:36:18;7.00;;;4.50;;
78838;SDS011;68405;47.190;27.558;2023-05-28T08:38:49;9.60;;;4.80;;
78838;SDS011;68405;47.190;27.558;2023-05-28T08:41:21;8.90;;;4.90;;
78838;SDS011;68405;47.190;27.558;2023-05-28T08:43:53;10.40;;;4.90;;
78838;SDS011;68405;47.190;27.558;2023-05-28T08:46:25;8.90;;;4.20;;
78838;SDS011;68405;47.190;27.558;2023-05-28T08:49:00;6.20;;;4.30;;
78838;SDS011;68405;47.190;27.558;2023-05-28T08:51:33;7.80;;;4.90;;
78838;SDS011;68405;47.190;27.558;2023-05-28T08:54:09;12.60;;;5.20;;
78838;SDS011;68405;47.190;27.558;2023-05-28T08:56:40;7.40;;;4.40;;
78838;SDS011;68405;47.190;27.558;2023-05-28T08:59:13;8.60;;;4.80;;
78838;SDS011;68405;47.190;27.558;2023-05-28T09:01:45;6.40;;;5.20;;
78838;SDS011;68405;47.190;27.558;2023-05-28T09:04:21;8.00;;;4.80;;
78838;SDS011;68405;47.190;27.558;2023-05-28T09:06:52;11.20;;;5.00;;
78838;SDS011;68405;47.190;27.558;2023-05-28T09:09:24;8.40;;;4.60;;
78838;SDS011;68405;47.190;27.558;2023-05-28T09:12:02;7.20;;;4.60;;
78838;SDS011;68405;47.190;27.558;2023-05-28T09:14:37;8.40;;;4.50;;
78838;SDS011;68405;47.190;27.558;2023-05-28T09:17:10;7.90;;;5.70;;
78838;SDS011;68405;47.190;27.558;2023-05-28T09:19:43;8.90;;;5.20;;
78838;SDS011;68405;47.190;27.558;2023-05-28T09:22:21;9.20;;;4.90;;
78838;SDS011;68405;47.190;27.558;2023-05-28T09:24:53;11.30;;;4.90;;
78838;SDS011;68405;47.190;27.558;2023-05-28T09:27:25;10.50;;;4.80;;
78838;SDS011;68405;47.190;27.558;2023-05-28T09:29:58;7.40;;;5.60;;
78838;SDS011;68405;47.190;27.558;2023-05-28T09:32:34;8.30;;;4.90;;
78838;SDS011;68405;47.190;27.558;2023-05-28T09:35:06;13.20;;;4.70;;
78838;SDS011;68405;47.190;27.558;2023-05-28T09:37:39;9.10;;;5.00;;
78838;SDS011;68405;47.190;27.558;2023-05-28T09:40:11;7.80;;;4.40;;
78838;SDS011;68405;47.190;27.558;2023-05-28T09:42:43;7.20;;;4.90;;
78838;SDS011;68405;47.190;27.558;2023-05-28T09:45:20;9.90;;;5.70;;
78838;SDS011;68405;47.190;27.558;2023-05-28T09:47:53;11.20;;;4.30;;
78838;SDS011;68405;47.190;27.558;2023-05-28T09:50:25;7.20;;;4.20;;
78838;SDS011;68405;47.190;27.558;2023-05-28T09:52:58;5.90;;;4.60;;
78838;SDS011;68405;47.190;27.558;2023-05-28T09:55:33;7.70;;;4.10;;
78838;SDS011;68405;47.190;27.558;2023-05-28T09:58:06;9.70;;;4.40;;
78838;SDS011;68405;47.190;27.558;2023-05-28T10:00:40;8.00;;;4.50;;
78838;SDS011;68405;47.190;27.558;2023-05-28T10:03:20;8.30;;;4.10;;
78838;SDS011;68405;47.190;27.558;2023-05-28T10:05:57;6.80;;;3.90;;
78838;SDS011;68405;47.190;27.558;2023-05-28T10:08:33;6.30;;;4.10;;
78838;SDS011;68405;47.190;27.558;2023-05-28T10:11:10;6.50;;;4.50;;
78838;SDS011;68405;47.190;27.558;2023-05-28T10:13:45;7.40;;;4.10;;
78838;SDS011;68405;47.190;27.558;2023-05-28T10:16:18;7.50;;;4.10;;
78838;SDS011;68405;47.190;27.558;2023-05-28T10:18:50;9.30;;;4.80;;
78838;SDS011;68405;47.190;27.558;2023-05-28T10:21:23;7.20;;;4.00;;
78838;SDS011;68405;47.190;27.558;2023-05-28T10:23:55;7.30;;;4.10;;
78838;SDS011;68405;47.190;27.558;2023-05-28T10:26:27;9.10;;;4.50;;
78838;SDS011;68405;47.190;27.558;2023-05-28T10:28:59;8.40;;;4.60;;
78838;SDS011;68405;47.190;27.558;2023-05-28T10:31:35;6.30;;;4.30;;
78838;SDS011;68405;47.190;27.558;2023-05-28T10:34:15;7.50;;;4.50;;
78838;SDS011;68405;47.190;27.558;2023-05-28T10:36:52;7.30;;;4.60;;
78838;SDS011;68405;47.190;27.558;2023-05-28T10:39:26;6.40;;;4.80;;
78838;SDS011;68405;47.190;27.558;2023-05-28T10:42:07;6.90;;;4.80;;
78838;SDS011;68405;47.190;27.558;2023-05-28T10:44:52;7.90;;;4.20;;
78838;SDS011;68405;47.190;27.558;2023-05-28T10:47:38;7.10;;;4.20;;
78838;SDS011;68405;47.190;27.558;2023-05-28T10:50:14;8.50;;;4.50;;
78838;SDS011;68405;47.190;27.558;2023-05-28T10:55:49;6.50;;;4.00;;
78838;SDS011;68405;47.190;27.558;2023-05-28T10:58:25;8.90;;;4.80;;
78838;SDS011;68405;47.190;27.558;2023-05-28T11:01:18;7.50;;;3.80;;
78838;SDS011;68405;47.190;27.558;2023-05-28T11:03:54;9.30;;;4.20;;
78838;SDS011;68405;47.190;27.558;2023-05-28T11:06:26;5.90;;;3.70;;
78838;SDS011;68405;47.190;27.558;2023-05-28T11:08:59;5.90;;;4.10;;
78838;SDS011;68405;47.190;27.558;2023-05-28T11:11:32;7.00;;;4.20;;
78838;SDS011;68405;47.190;27.558;2023-05-28T11:14:08;5.50;;;4.10;;
78838;SDS011;68405;47.190;27.558;2023-05-28T11:16:44;5.50;;;3.90;;
78838;SDS011;68405;47.190;27.558;2023-05-28T11:19:16;7.10;;;4.30;;
78838;SDS011;68405;47.190;27.558;2023-05-28T11:21:51;5.40;;;4.50;;
78838;SDS011;68405;47.190;27.558;2023-05-28T11:24:24;6.70;;;4.40;;
78838;SDS011;68405;47.190;27.558;2023-05-28T11:26:56;6.60;;;4.20;;
78838;SDS011;68405;47.190;27.558;2023-05-28T11:29:28;6.60;;;4.10;;
78838;SDS011;68405;47.190;27.558;2023-05-28T11:32:00;5.80;;;4.60;;
78838;SDS011;68405;47.190;27.558;2023-05-28T11:34:32;7.70;;;5.00;;
78838;SDS011;68405;47.190;27.558;2023-05-28T11:37:06;7.30;;;4.30;;
78838;SDS011;68405;47.190;27.558;2023-05-28T11:39:37;6.90;;;3.60;;
78838;SDS011;68405;47.190;27.558;2023-05-28T11:42:18;5.00;;;3.90;;
78838;SDS011;68405;47.190;27.558;2023-05-28T11:44:50;7.60;;;3.70;;
78838;SDS011;68405;47.190;27.558;2023-05-28T11:47:22;5.80;;;3.60;;
78838;SDS011;68405;47.190;27.558;2023-05-28T11:49:55;7.30;;;3.90;;
78838;SDS011;68405;47.190;27.558;2023-05-28T11:52:26;4.50;;;3.50;;
78838;SDS011;68405;47.190;27.558;2023-05-28T11:54:58;6.50;;;3.80;;
78838;SDS011;68405;47.190;27.558;2023-05-28T11:57:31;6.60;;;3.80;;
78838;SDS011;68405;47.190;27.558;2023-05-28T12:00:06;4.30;;;3.50;;
78838;SDS011;68405;47.190;27.558;2023-05-28T12:02:43;4.40;;;3.00;;
78838;SDS011;68405;47.190;27.558;2023-05-28T12:05:16;5.30;;;3.30;;
78838;SDS011;68405;47.190;27.558;2023-05-28T12:07:49;4.40;;;3.40;;
78838;SDS011;68405;47.190;27.558;2023-05-28T12:10:25;9.40;;;3.90;;
78838;SDS011;68405;47.190;27.558;2023-05-28T12:13:00;5.90;;;3.40;;
78838;SDS011;68405;47.190;27.558;2023-05-28T12:15:33;6.50;;;3.60;;
78838;SDS011;68405;47.190;27.558;2023-05-28T12:18:05;4.40;;;3.20;;
78838;SDS011;68405;47.190;27.558;2023-05-28T12:20:39;6.00;;;3.70;;
78838;SDS011;68405;47.190;27.558;2023-05-28T12:23:11;5.10;;;3.30;;
78838;SDS011;68405;47.190;27.558;2023-05-28T12:25:46;5.70;;;3.90;;
78838;SDS011;68405;47.190;27.558;2023-05-28T12:28:19;7.00;;;3.40;;
78838;SDS011;68405;47.190;27.558;2023-05-28T12:30:52;4.60;;;3.20;;
78838;SDS011;68405;47.190;27.558;2023-05-28T12:33:24;7.70;;;3.90;;
78838;SDS011;68405;47.190;27.558;2023-05-28T12:35:55;7.10;;;3.70;;
78838;SDS011;68405;47.190;27.558;2023-05-28T12:38:28;6.00;;;3.70;;
78838;SDS011;68405;47.190;27.558;2023-05-28T12:41:00;7.90;;;4.20;;
78838;SDS011;68405;47.190;27.558;2023-05-28T12:43:32;5.80;;;3.80;;
78838;SDS011;68405;47.190;27.558;2023-05-28T12:46:04;4.90;;;3.80;;
78838;SDS011;68405;47.190;27.558;2023-05-28T12:48:36;4.60;;;3.30;;
78838;SDS011;68405;47.190;27.558;2023-05-28T12:51:08;5.80;;;3.60;;
78838;SDS011;68405;47.190;27.558;2023-05-28T12:53:40;4.70;;;3.50;;
78838;SDS011;68405;47.190;27.558;2023-05-28T12:56:12;5.10;;;3.80;;
78838;SDS011;68405;47.190;27.558;2023-05-28T12:58:44;4.50;;;3.40;;
78838;SDS011;68405;47.190;27.558;2023-05-28T13:01:19;7.40;;;3.70;;
78838;SDS011;68405;47.190;27.558;2023-05-28T13:03:51;8.00;;;4.10;;
78838;SDS011;68405;47.190;27.558;2023-05-28T13:06:22;6.10;;;3.60;;
78838;SDS011;68405;47.190;27.558;2023-05-28T13:08:54;7.00;;;3.90;;
78838;SDS011;68405;47.190;27.558;2023-05-28T13:11:26;8.60;;;3.30;;
78838;SDS011;68405;47.190;27.558;2023-05-28T13:13:58;4.90;;;3.70;;
78838;SDS011;68405;47.190;27.558;2023-05-28T13:16:29;6.50;;;3.40;;
78838;SDS011;68405;47.190;27.558;2023-05-28T13:19:01;5.40;;;3.50;;
78838;SDS011;68405;47.190;27.558;2023-05-28T13:21:32;6.20;;;3.60;;
78838;SDS011;68405;47.190;27.558;2023-05-28T13:24:06;6.50;;;3.70;;
78838;SDS011;68405;47.190;27.558;2023-05-28T13:26:38;7.60;;;3.80;;
78838;SDS011;68405;47.190;27.558;2023-05-28T13:29:10;6.20;;;3.50;;
78838;SDS011;68405;47.190;27.558;2023-05-28T13:31:42;4.50;;;3.30;;
78838;SDS011;68405;47.190;27.558;2023-05-28T13:34:13;7.30;;;3.50;;
78838;SDS011;68405;47.190;27.558;2023-05-28T13:36:45;4.80;;;3.80;;
78838;SDS011;68405;47.190;27.558;2023-05-28T13:39:16;8.70;;;3.80;;
78838;SDS011;68405;47.190;27.558;2023-05-28T13:41:50;5.30;;;3.50;;
78838;SDS011;68405;47.190;27.558;2023-05-28T13:44:21;4.80;;;3.60;;
78838;SDS011;68405;47.190;27.558;2023-05-28T13:46:53;5.50;;;3.70;;
78838;SDS011;68405;47.190;27.558;2023-05-28T13:49:24;9.00;;;3.10;;
78838;SDS011;68405;47.190;27.558;2023-05-28T13:51:56;6.10;;;4.40;;
78838;SDS011;68405;47.190;27.558;2023-05-28T13:54:28;8.30;;;4.20;;
78838;SDS011;68405;47.190;27.558;2023-05-28T13:57:00;6.00;;;3.70;;
78838;SDS011;68405;47.190;27.558;2023-05-28T13:59:32;5.90;;;3.70;;
78838;SDS011;68405;47.190;27.558;2023-05-28T14:02:03;6.90;;;3.60;;
78838;SDS011;68405;47.190;27.558;2023-05-28T14:04:36;7.30;;;3.80;;
78838;SDS011;68405;47.190;27.558;2023-05-28T14:07:08;5.00;;;3.30;;
78838;SDS011;68405;47.190;27.558;2023-05-28T14:09:39;6.60;;;3.80;;
78838;SDS011;68405;47.190;27.558;2023-05-28T14:12:11;6.60;;;3.70;;
78838;SDS011;68405;47.190;27.558;2023-05-28T14:14:43;5.90;;;3.60;;
78838;SDS011;68405;47.190;27.558;2023-05-28T14:17:15;5.30;;;3.40;;
78838;SDS011;68405;47.190;27.558;2023-05-28T14:19:46;5.60;;;3.40;;
78838;SDS011;68405;47.190;27.558;2023-05-28T14:22:19;6.00;;;3.80;;
78838;SDS011;68405;47.190;27.558;2023-05-28T14:24:50;5.60;;;3.60;;
78838;SDS011;68405;47.190;27.558;2023-05-28T14:27:22;11.40;;;4.50;;
78838;SDS011;68405;47.190;27.558;2023-05-28T14:29:54;10.20;;;4.70;;
78838;SDS011;68405;47.190;27.558;2023-05-28T14:32:25;5.50;;;3.50;;
78838;SDS011;68405;47.190;27.558;2023-05-28T14:34:57;5.80;;;3.70;;
78838;SDS011;68405;47.190;27.558;2023-05-28T14:37:29;9.30;;;4.10;;
78838;SDS011;68405;47.190;27.558;2023-05-28T14:40:01;7.00;;;4.30;;
78838;SDS011;68405;47.190;27.558;2023-05-28T14:42:34;8.40;;;3.90;;
78838;SDS011;68405;47.190;27.558;2023-05-28T14:45:06;7.20;;;3.50;;
78838;SDS011;68405;47.190;27.558;2023-05-28T14:47:38;8.70;;;3.60;;
78838;SDS011;68405;47.190;27.558;2023-05-28T14:50:10;6.20;;;4.30;;
78838;SDS011;68405;47.190;27.558;2023-05-28T14:52:41;5.90;;;3.70;;
78838;SDS011;68405;47.190;27.558;2023-05-28T14:55:14;7.20;;;3.80;;
78838;SDS011;68405;47.190;27.558;2023-05-28T14:57:46;6.10;;;3.50;;
78838;SDS011;68405;47.190;27.558;2023-05-28T15:00:17;5.00;;;3.60;;
78838;SDS011;68405;47.190;27.558;2023-05-28T15:02:49;8.10;;;4.40;;
78838;SDS011;68405;47.190;27.558;2023-05-28T15:05:21;5.90;;;3.80;;
78838;SDS011;68405;47.190;27.558;2023-05-28T15:07:54;6.40;;;3.80;;
78838;SDS011;68405;47.190;27.558;2023-05-28T15:10:26;12.30;;;4.40;;
78838;SDS011;68405;47.190;27.558;2023-05-28T15:12:57;5.70;;;3.70;;